KLGA/LGA METAR and TAF weather

Enter ICAO airport designator
Station Type Date Time Source
KLGA METAR 2019/12/16 05:51 UTC NOAA

KLGA 160551Z 31014KT 10SM FEW050 BKN150 BKN240 03/M07 A3018 RMK AO2 SLP218 T00281072 10056 20028 51021


Station Type Date Time Source
KLGA Decoded METAR 2019/12/16 05:51 UTC NOAA

NEW YORK LA GUARDIA AIRPORT , NY, United States (KLGA) 40-47N 73-53W 11M
Dec 16, 2019 - 12:51 AM EST / 2019.12.16 0551 UTC
Wind: from the NW (310 degrees) at 16 MPH (14 KT):0
Visibility: 10 mile(s):0
Sky conditions: mostly cloudy
Temperature: 37.0 F (2.8 C)
Dew Point: 19.0 F (-7.2 C)
Relative Humidity: 47%
Pressure (altimeter): 30.18 in. Hg (1022 hPa)
Pressure tendency: 0.06 inches (2.1 hPa) higher than three hours ago
ob: KLGA 160551Z 31014KT 10SM FEW050 BKN150 BKN240 03/M07 A3018 RMK AO2 SLP218 T00281072 10056 20028 51021
cycle: 6

Station Type Date Time Source
KLGA TAF 2019/12/16 06:42 UTC NOAA

TAF KLGA 160539Z 1606/1712 31013KT P6SM SCT250
FM160800 32009KT P6SM BKN200
FM161300 31006KT P6SM BKN090
FM161700 29004KT P6SM OVC045
FM162100 05004KT P6SM OVC035 PROB30 1623/1701 5SM -SN OVC030
FM170100 VRB03KT 5SM -RASN OVC025
FM170400 VRB03KT 5SM -RA BR OVC015
FM170600 VRB03KT 5SM -RA BR OVC008

Example: see airport list